Time;durP1;ratioP1;P1;durP2;ratioP2;P2;SDS_P1;SDS_P2;PMS_P1;PMS_P2;Temp;Humidity;BMP_temperature;BMP_pressure;BME280_temperature;BME280_humidity;BME280_pressure;Samples;Min_cycle;Max_cycle;Signal;HPM_P1;HPM_P2
2021/08/24 00:01:30;;;;;;;9.48;3.78;;;;;;;23.58;43.96;97343.09;5071489;28;20035;-72
2021/08/24 00:03:56;;;;;;;7.25;3.90;;;;;;;23.55;44.22;97329.81;5070978;28;20097;-73
2021/08/24 00:06:21;;;;;;;16.92;4.13;;;;;;;23.52;44.25;97332.91;5071147;28;20032;-73
2021/08/24 00:08:47;;;;;;;7.47;4.07;;;;;;;23.43;44.47;97331.25;5071369;28;20027;-73
2021/08/24 00:11:12;;;;;;;5.75;3.45;;;;;;;23.37;44.73;97331.94;5054101;28;20123;-73
2021/08/24 00:13:39;;;;;;;26.55;4.35;;;;;;;23.37;44.79;97330.06;5054439;28;20033;-72
2021/08/24 00:16:05;;;;;;;13.13;4.00;;;;;;;23.33;45.14;97327.88;5070878;28;20046;-72
2021/08/24 00:18:31;;;;;;;7.72;4.10;;;;;;;23.27;45.17;97323.13;5087946;28;20532;-73
2021/08/24 00:20:57;;;;;;;6.93;4.13;;;;;;;23.15;45.55;97337.19;5070766;28;20097;-72
2021/08/24 00:23:26;;;;;;;7.28;4.18;;;;;;;23.15;45.58;97320.81;5070772;28;20024;-73
2021/08/24 00:25:53;;;;;;;6.78;4.07;;;;;;;23.12;45.46;97329.34;5072116;28;20107;-72
2021/08/24 00:28:20;;;;;;;8.77;3.50;;;;;;;23.08;45.40;97310.78;5085253;28;20020;-72
2021/08/24 00:30:45;;;;;;;8.25;3.92;;;;;;;23.13;45.46;97314.66;5054245;28;20060;-73
2021/08/24 00:33:12;;;;;;;24.23;4.90;;;;;;;23.05;45.68;97317.44;5087535;28;20059;-72
2021/08/24 00:35:40;;;;;;;6.22;4.00;;;;;;;22.99;45.83;97309.13;5087698;28;20032;-73
2021/08/24 00:38:10;;;;;;;11.45;4.40;;;;;;;22.99;45.88;97320.88;5053582;28;20127;-72
2021/08/24 00:40:36;;;;;;;6.32;3.67;;;;;;;22.95;46.12;97321.44;5070681;28;20025;-73
2021/08/24 00:43:02;;;;;;;7.50;3.80;;;;;;;22.86;46.15;97308.81;5070191;28;20032;-73
2021/08/24 00:45:28;;;;;;;16.65;4.63;;;;;;;22.85;45.94;97302.53;5053581;28;20033;-72
2021/08/24 00:47:54;;;;;;;19.42;4.25;;;;;;;22.77;46.29;97312.63;5071716;28;20032;-73
2021/08/24 00:50:32;;;;;;;8.48;3.88;;;;;;;22.78;46.19;97312.47;5087244;28;20159;-73
2021/08/24 00:53:15;;;;;;;18.85;5.05;;;;;;;22.79;46.12;97308.72;5070114;28;20405;-72
2021/08/24 00:55:42;;;;;;;11.90;3.92;;;;;;;22.76;46.25;97314.53;5069800;28;20051;-72
2021/08/24 00:58:11;;;;;;;6.40;3.53;;;;;;;22.75;46.27;97315.53;5070103;28;20032;-73
2021/08/24 01:00:38;;;;;;;5.72;3.42;;;;;;;22.67;46.15;97312.84;5087397;28;20028;-73
2021/08/24 01:03:13;;;;;;;14.43;3.90;;;;;;;22.71;46.32;97308.72;5069892;28;20393;-73
2021/08/24 01:05:39;;;;;;;28.70;4.65;;;;;;;22.74;46.05;97307.53;5053486;28;20435;-72
2021/08/24 01:08:15;;;;;;;8.68;4.22;;;;;;;22.64;46.38;97311.28;5087125;28;20438;-72
2021/08/24 01:10:54;;;;;;;9.30;4.18;;;;;;;22.59;46.64;97316.41;5070231;28;20166;-72
2021/08/24 01:13:34;;;;;;;11.93;4.55;;;;;;;22.57;46.37;97309.44;5070304;28;20035;-73
2021/08/24 01:16:26;;;;;;;56.85;6.45;;;;;;;22.55;46.53;97311.47;5067338;28;20016;-73
2021/08/24 01:19:06;;;;;;;15.25;4.28;;;;;;;22.54;46.79;97317.97;5048144;28;20407;-72
2021/08/24 01:22:02;;;;;;;7.78;4.25;;;;;;;22.51;46.79;97312.88;5069952;28;20108;-72
2021/08/24 01:24:49;;;;;;;9.95;3.53;;;;;;;22.46;46.78;97304.34;5069751;28;20127;-72
2021/08/24 01:27:33;;;;;;;6.78;3.70;;;;;;;22.47;46.97;97295.16;5069744;28;20036;-73
2021/08/24 01:30:26;;;;;;;12.63;3.83;;;;;;;22.45;46.85;97310.84;5062644;28;20028;-72
2021/08/24 01:32:52;;;;;;;8.30;3.92;;;;;;;22.46;46.90;97309.78;5069944;28;20518;-72
2021/08/24 01:35:55;;;;;;;5.68;3.40;;;;;;;22.38;47.09;97307.09;5069696;28;20115;-72
2021/08/24 01:38:21;;;;;;;;;;;;;;;22.39;47.03;97292.47;5067174;28;20028;-72
2021/08/24 01:40:52;;;;;;;7.50;3.45;;;;;;;22.38;46.97;97304.38;5053006;28;20433;-72
2021/08/24 01:43:25;;;;;;;16.37;4.70;;;;;;;22.32;47.00;97297.75;5069668;28;20032;-73
2021/08/24 01:46:01;;;;;;;9.23;3.55;;;;;;;22.29;47.20;97295.38;5069736;28;20105;-73
2021/08/24 01:48:37;;;;;;;5.45;3.90;;;;;;;22.27;47.30;97296.59;5052886;28;20046;-72
2021/08/24 01:51:09;;;;;;;7.00;3.63;;;;;;;22.16;47.66;97295.06;5056777;28;20400;-72
2021/08/24 01:53:39;;;;;;;5.38;4.00;;;;;;;22.17;47.44;97302.22;5069604;28;20458;-72
2021/08/24 01:56:09;;;;;;;5.82;3.90;;;;;;;22.17;47.56;97301.34;5086778;28;20028;-72
2021/08/24 01:58:42;;;;;;;6.30;3.47;;;;;;;22.16;47.75;97286.88;5086318;28;20020;-73
2021/08/24 02:01:10;;;;;;;4.30;3.40;;;;;;;22.12;47.43;97288.25;5069867;28;20052;-73
2021/08/24 02:03:42;;;;;;;6.72;3.70;;;;;;;22.11;47.41;97289.28;5069498;28;20031;-72
2021/08/24 02:06:13;;;;;;;4.43;3.53;;;;;;;22.14;47.63;97284.34;5069601;28;20043;-73
2021/08/24 02:08:41;;;;;;;11.82;4.50;;;;;;;22.07;47.87;97283.31;5069457;28;20032;-72
2021/08/24 02:11:07;;;;;;;6.22;3.92;;;;;;;22.11;47.32;97292.88;5069756;28;20105;-72
2021/08/24 02:13:37;;;;;;;10.43;4.00;;;;;;;22.17;46.78;97282.28;5069423;28;20032;-72
2021/08/24 02:16:04;;;;;;;5.40;3.70;;;;;;;22.24;46.60;97292.31;5070822;28;20090;-72
2021/08/24 02:18:33;;;;;;;4.85;3.55;;;;;;;22.19;46.57;97286.53;5074382;28;20399;-72
2021/08/24 02:21:06;;;;;;;4.90;3.65;;;;;;;22.15;46.74;97272.41;5072966;28;20051;-72
2021/08/24 02:23:33;;;;;;;6.78;3.42;;;;;;;22.18;46.44;97265.75;5072845;28;20027;-73
2021/08/24 02:26:04;;;;;;;12.32;3.58;;;;;;;22.18;46.46;97275.81;5056110;28;20116;-73
2021/08/24 02:28:36;;;;;;;8.63;3.90;;;;;;;22.12;46.69;97275.47;5089828;28;20027;-72
2021/08/24 02:31:17;;;;;;;4.70;3.80;;;;;;;22.09;46.57;97269.50;5072960;28;20032;-73
2021/08/24 02:33:58;;;;;;;6.28;3.42;;;;;;;22.11;46.26;97283.84;5072588;28;20493;-72
2021/08/24 02:36:24;;;;;;;5.72;3.50;;;;;;;22.10;46.30;97274.81;5072701;28;20086;-73
2021/08/24 02:39:07;;;;;;;4.63;3.78;;;;;;;22.03;46.31;97273.78;5056048;28;20020;-72
2021/08/24 02:41:45;;;;;;;8.98;3.78;;;;;;;22.02;46.04;97274.84;5055881;28;20107;-72
2021/08/24 02:44:27;;;;;;;8.32;3.80;;;;;;;21.98;46.43;97281.63;5067510;28;20408;-72
2021/08/24 02:46:53;;;;;;;6.20;3.75;;;;;;;21.92;46.53;97271.44;5048468;28;20032;-72
2021/08/24 02:49:26;;;;;;;5.78;3.70;;;;;;;21.82;46.17;97276.16;5072744;28;20028;-72
2021/08/24 02:51:52;;;;;;;5.47;3.53;;;;;;;21.92;45.97;97282.31;5089592;28;20025;-72
2021/08/24 02:54:38;;;;;;;6.78;3.83;;;;;;;21.99;45.64;97277.91;5089637;28;20085;-71
2021/08/24 02:57:05;;;;;;;5.07;3.38;;;;;;;21.96;45.73;97275.53;5071442;28;20549;-72
2021/08/24 02:59:32;;;;;;;7.00;3.50;;;;;;;21.98;44.92;97265.28;5055772;28;20115;-72
2021/08/24 03:01:57;;;;;;;20.35;3.92;;;;;;;22.01;45.17;97272.25;5089351;28;20115;-72
2021/08/24 03:04:23;;;;;;;4.53;3.40;;;;;;;22.02;45.35;97272.09;5072527;28;20107;-72
2021/08/24 03:06:54;;;;;;;4.32;3.22;;;;;;;22.01;45.10;97270.41;5072143;28;20436;-72
2021/08/24 03:09:21;;;;;;;4.55;2.97;;;;;;;21.99;44.64;97266.16;5072188;28;20109;-72
2021/08/24 03:11:54;;;;;;;6.28;3.60;;;;;;;22.00;44.48;97265.09;5055266;28;20032;-71
2021/08/24 03:14:29;;;;;;;14.63;3.42;;;;;;;22.01;44.47;97269.53;5047924;28;20384;-72
2021/08/24 03:17:04;;;;;;;5.18;3.25;;;;;;;21.95;44.59;97260.19;5088696;28;20033;-72
2021/08/24 03:19:32;;;;;;;8.13;3.33;;;;;;;21.98;44.66;97265.28;5055409;28;20056;-71
2021/08/24 03:21:58;;;;;;;4.68;3.25;;;;;;;22.01;44.17;97270.41;5069449;28;20029;-72
2021/08/24 03:24:24;;;;;;;5.72;3.15;;;;;;;22.01;44.17;97273.13;5072036;28;20101;-72
2021/08/24 03:26:51;;;;;;;6.13;3.55;;;;;;;21.95;44.38;97262.06;5071263;28;20052;-72
2021/08/24 03:29:20;;;;;;;5.55;3.83;;;;;;;21.93;44.64;97273.13;5071827;28;20098;-71
2021/08/24 03:31:50;;;;;;;7.90;3.42;;;;;;;21.85;44.33;97269.53;5071688;28;20029;-72
2021/08/24 03:34:15;;;;;;;7.22;3.55;;;;;;;21.83;44.22;97280.59;5071716;28;20021;-72
2021/08/24 03:36:41;;;;;;;7.85;3.40;;;;;;;21.79;44.82;97276.50;5071640;28;20074;-73
2021/08/24 03:39:06;;;;;;;4.97;3.40;;;;;;;21.82;44.15;97264.41;5054962;28;20028;-72
2021/08/24 03:41:32;;;;;;;4.22;3.33;;;;;;;21.73;45.63;97281.78;5071731;28;20028;-72
2021/08/24 03:43:58;;;;;;;6.65;3.65;;;;;;;21.73;44.87;97279.06;5071561;28;20472;-71
2021/08/24 03:46:23;;;;;;;5.72;3.70;;;;;;;21.59;45.61;97280.63;5088398;28;20033;-71
2021/08/24 03:48:49;;;;;;;10.48;3.63;;;;;;;21.49;46.26;97290.81;5072284;28;20047;-72
2021/08/24 03:51:14;;;;;;;6.47;3.50;;;;;;;21.47;45.67;97276.53;5071225;28;20093;-72
2021/08/24 03:53:40;;;;;;;4.85;3.63;;;;;;;21.63;45.31;97292.84;5072497;28;20036;-72
2021/08/24 03:56:07;;;;;;;4.65;3.58;;;;;;;21.49;46.85;97291.66;5087995;28;20496;-72
2021/08/24 03:58:33;;;;;;;9.90;4.28;;;;;;;21.38;46.38;97280.25;5071228;28;20021;-72
2021/08/24 04:00:59;;;;;;;5.25;3.85;;;;;;;21.36;46.79;97287.72;5087937;28;20468;-72
2021/08/24 04:03:25;;;;;;;8.70;4.18;;;;;;;21.33;47.03;97282.63;5071117;28;20031;-71
2021/08/24 04:05:58;;;;;;;7.18;3.95;;;;;;;21.37;46.68;97284.00;5070655;28;20458;-72
2021/08/24 04:08:24;;;;;;;10.50;3.60;;;;;;;21.41;46.04;97277.22;5071254;28;20028;-71
2021/08/24 04:10:51;;;;;;;9.45;3.55;;;;;;;21.48;46.23;97294.53;5070890;28;20036;-71
2021/08/24 04:13:17;;;;;;;6.45;3.97;;;;;;;21.46;46.17;97297.44;5087931;28;20114;-71
2021/08/24 04:15:43;;;;;;;8.18;3.90;;;;;;;21.49;45.97;97286.22;5070970;28;20021;-72
2021/08/24 04:18:08;;;;;;;6.53;4.03;;;;;;;21.58;45.71;97293.38;5054258;28;20020;-71
2021/08/24 04:20:34;;;;;;;81.88;55.05;;;;;;;21.65;46.50;97298.13;5087571;28;20404;-72
2021/08/24 04:22:59;;;;;;;5.70;3.40;;;;;;;21.73;45.09;97288.09;5053926;28;20043;-71
2021/08/24 04:25:25;;;;;;;8.00;3.80;;;;;;;21.81;45.47;97300.88;5071858;28;20040;-72
2021/08/24 04:27:51;;;;;;;4.50;3.65;;;;;;;21.87;44.29;97286.56;5070448;28;20554;-71
2021/08/24 04:30:16;;;;;;;9.75;3.90;;;;;;;21.98;44.27;97300.72;5053943;28;20070;-72
2021/08/24 04:32:46;;;;;;;4.50;3.20;;;;;;;22.00;44.04;97282.31;5053859;28;20062;-72
2021/08/24 04:35:14;;;;;;;9.23;3.92;;;;;;;22.06;44.54;97294.38;5037563;28;20013;-74
2021/08/24 04:37:39;;;;;;;13.82;3.58;;;;;;;22.19;43.31;97294.72;5053759;28;20443;-75
2021/08/24 04:40:06;;;;;;;5.07;3.60;;;;;;;22.24;43.40;97292.31;5052659;28;20098;-75
2021/08/24 04:45:11;;;;;;;10.43;5.35;;;;;;;21.95;47.81;97317.41;5197068;22;20073;-77
2021/08/24 04:47:36;;;;;;;8.43;4.40;;;;;;;21.87;48.24;97317.34;5016880;28;20086;-86
2021/08/24 04:50:03;;;;;;;11.77;5.50;;;;;;;21.73;49.00;97309.88;5017287;28;20084;-81
2021/08/24 04:52:29;;;;;;;17.58;11.20;;;;;;;21.72;48.17;97301.88;5004958;28;20101;-81
2021/08/24 04:54:54;;;;;;;8.50;3.70;;;;;;;21.96;44.49;97302.75;5033913;28;20029;-77
2021/08/24 04:57:20;;;;;;;10.23;4.97;;;;;;;22.03;46.65;97309.19;5050563;28;20029;-79
2021/08/24 04:59:46;;;;;;;8.23;4.88;;;;;;;22.01;47.07;97311.25;5051440;28;20388;-77
2021/08/24 05:02:11;;;;;;;10.52;4.03;;;;;;;22.14;45.39;97314.31;5051604;28;20115;-77
2021/08/24 05:04:37;;;;;;;9.27;4.47;;;;;;;22.47;42.64;97308.78;5049813;28;20480;-78
2021/08/24 05:07:02;;;;;;;13.05;6.93;;;;;;;22.63;44.71;97316.91;5051537;28;20036;-77
2021/08/24 05:09:29;;;;;;;10.63;3.47;;;;;;;22.66;42.44;97312.00;5039173;28;20384;-78
2021/08/24 05:11:56;;;;;;;8.75;6.22;;;;;;;22.89;41.50;97317.50;5045902;28;20064;-76
2021/08/24 05:14:21;;;;;;;38.83;6.38;;;;;;;22.82;44.88;97330.19;5026183;28;20051;-76
2021/08/24 05:16:53;;;;;;;20.67;7.38;;;;;;;22.44;47.18;97347.28;5041505;28;20037;-77
2021/08/24 05:19:18;;;;;;;13.43;6.80;;;;;;;22.16;48.53;97346.81;5033610;28;20095;-78
2021/08/24 05:21:44;;;;;;;26.73;7.40;;;;;;;22.13;49.04;97348.03;5025439;28;20107;-78
2021/08/24 05:24:09;;;;;;;21.20;8.18;;;;;;;22.33;48.72;97340.34;4997033;28;20025;-78
2021/08/24 05:26:35;;;;;;;15.95;7.65;;;;;;;22.02;48.91;97332.03;5013547;28;20029;-78
2021/08/24 05:29:01;;;;;;;27.80;7.50;;;;;;;22.35;48.71;97330.13;5049544;28;20188;-77
2021/08/24 05:31:26;;;;;;;16.48;8.70;;;;;;;22.45;48.79;97335.38;5027255;28;20060;-77
2021/08/24 05:33:52;;;;;;;20.92;6.43;;;;;;;22.84;47.64;97341.75;5049613;28;20044;-77
2021/08/24 05:36:17;;;;;;;17.70;6.22;;;;;;;23.07;46.59;97345.41;5049762;28;20044;-77
2021/08/24 05:38:43;;;;;;;14.18;5.28;;;;;;;23.34;45.44;97332.31;5051478;28;20035;-77
2021/08/24 05:41:08;;;;;;;12.95;6.32;;;;;;;25.52;41.35;97339.25;5033221;28;20394;-77
2021/08/24 05:43:34;;;;;;;21.65;7.53;;;;;;;27.55;37.39;97337.22;5049696;28;20473;-77
2021/08/24 05:46:06;;;;;;;16.33;5.63;;;;;;;28.92;34.34;97325.47;5050950;28;20044;-77
2021/08/24 05:48:32;;;;;;;17.10;5.57;;;;;;;30.42;32.10;97323.06;5033083;28;20029;-79
2021/08/24 05:50:58;;;;;;;12.02;5.47;;;;;;;31.02;30.90;97313.16;5035825;28;20089;-79
2021/08/24 05:53:24;;;;;;;12.13;5.18;;;;;;;31.39;30.08;97319.50;5046679;28;20032;-79
2021/08/24 05:55:50;;;;;;;18.77;5.65;;;;;;;31.77;29.48;97321.19;5048709;28;20033;-79
2021/08/24 05:58:16;;;;;;;14.98;5.13;;;;;;;33.06;28.18;97310.97;5054936;28;20021;-79
2021/08/24 06:00:42;;;;;;;26.27;6.13;;;;;;;33.41;27.32;97299.00;5053541;28;20033;-79
2021/08/24 06:03:08;;;;;;;22.58;5.80;;;;;;;33.60;26.85;97300.50;5045094;28;20407;-79
2021/08/24 06:05:38;;;;;;;14.80;5.38;;;;;;;34.40;26.14;97298.44;5036741;28;20107;-79
2021/08/24 06:08:04;;;;;;;12.18;5.47;;;;;;;35.24;25.12;97307.59;5054399;28;20373;-79
2021/08/24 06:10:30;;;;;;;10.18;7.10;;;;;;;34.44;25.90;97301.56;5053492;28;20021;-79
2021/08/24 06:12:55;;;;;;;24.73;7.47;;;;;;;35.83;24.27;97303.06;5054360;28;20032;-79
2021/08/24 06:15:21;;;;;;;15.95;5.38;;;;;;;35.34;24.79;97293.81;5053149;28;20439;-77
2021/08/24 06:17:47;;;;;;;7.80;5.40;;;;;;;36.00;23.99;97300.19;5054602;28;20381;-77
2021/08/24 06:20:14;;;;;;;11.73;4.70;;;;;;;36.60;23.07;97294.41;5036261;28;20025;-77
2021/08/24 06:22:39;;;;;;;30.98;11.85;;;;;;;36.38;23.29;97288.91;5041516;28;20022;-78
2021/08/24 06:25:05;;;;;;;13.00;5.45;;;;;;;37.52;22.40;97294.78;5034421;28;20117;-77
2021/08/24 06:27:31;;;;;;;14.77;4.93;;;;;;;37.12;22.83;97300.09;5046313;28;20570;-77
2021/08/24 06:29:56;;;;;;;16.67;5.38;;;;;;;38.31;21.49;97294.44;5053025;28;20033;-76
2021/08/24 06:32:37;;;;;;;14.23;5.35;;;;;;;37.57;22.08;97289.19;5052790;28;20025;-77
2021/08/24 06:35:03;;;;;;;10.75;5.40;;;;;;;36.62;23.05;97298.59;5052510;28;20029;-76
2021/08/24 06:37:29;;;;;;;15.27;5.30;;;;;;;37.41;22.28;97298.56;5052737;28;20060;-78
2021/08/24 06:39:55;;;;;;;8.43;4.75;;;;;;;36.31;22.85;97291.06;5039829;28;20545;-78
2021/08/24 06:42:20;;;;;;;7.82;4.13;;;;;;;37.09;22.24;97300.66;5053985;28;20404;-77
2021/08/24 06:44:46;;;;;;;8.27;4.70;;;;;;;36.97;22.21;97286.03;5053716;28;20049;-78
2021/08/24 06:47:12;;;;;;;25.45;4.55;;;;;;;37.42;21.78;97287.16;5026076;28;20064;-78
2021/08/24 06:49:37;;;;;;;6.63;4.35;;;;;;;37.34;21.84;97289.63;5016155;28;20566;-79
2021/08/24 06:52:05;;;;;;;9.23;4.07;;;;;;;36.75;22.24;97287.00;5033033;28;20029;-76
2021/08/24 06:54:31;;;;;;;14.90;4.60;;;;;;;37.36;21.65;97287.41;5037282;28;20064;-78
2021/08/24 06:56:57;;;;;;;11.88;5.35;;;;;;;37.80;20.56;97294.31;5044912;28;20022;-79
2021/08/24 06:59:23;;;;;;;6.80;4.35;;;;;;;37.06;21.28;97287.25;5027790;28;20028;-77
2021/08/24 07:01:49;;;;;;;8.93;3.55;;;;;;;37.77;20.83;97289.28;5031920;28;20052;-78
2021/08/24 07:04:14;;;;;;;13.25;3.92;;;;;;;38.81;19.95;97290.88;5034137;28;20041;-78
2021/08/24 07:06:40;;;;;;;7.78;3.60;;;;;;;38.57;19.87;97282.19;5053339;28;20493;-79
2021/08/24 07:09:05;;;;;;;8.23;4.75;;;;;;;38.49;19.40;97294.78;5053276;28;20075;-78
2021/08/24 07:11:31;;;;;;;9.02;4.30;;;;;;;36.72;20.91;97284.75;5053490;28;20058;-78
2021/08/24 07:13:59;;;;;;;12.57;6.65;;;;;;;37.70;20.23;97293.44;5053467;28;20126;-79
2021/08/24 07:16:25;;;;;;;8.07;4.05;;;;;;;38.38;19.50;97283.88;5034831;28;20021;-78
2021/08/24 07:18:55;;;;;;;17.77;7.80;;;;;;;38.94;18.85;97288.34;5053353;28;20079;-78
2021/08/24 07:21:21;;;;;;;6.93;3.97;;;;;;;38.98;19.09;97288.59;5051975;28;20033;-78
2021/08/24 07:23:47;;;;;;;7.85;4.00;;;;;;;38.88;18.94;97283.06;5032678;28;20055;-79
2021/08/24 07:26:13;;;;;;;15.90;3.88;;;;;;;39.06;18.70;97284.41;5052947;28;20484;-79
2021/08/24 07:28:39;;;;;;;5.63;3.00;;;;;;;38.06;19.25;97284.06;5015285;28;20045;-79
2021/08/24 07:31:05;;;;;;;6.28;3.20;;;;;;;37.71;19.64;97279.22;5031803;28;20037;-78
2021/08/24 07:33:31;;;;;;;13.82;3.78;;;;;;;38.48;18.82;97272.69;5015171;28;20033;-78
2021/08/24 07:35:57;;;;;;;11.57;3.83;;;;;;;39.67;18.11;97285.94;5031842;28;20073;-78
2021/08/24 07:38:22;;;;;;;6.32;3.40;;;;;;;39.48;17.15;97282.91;5025877;28;20028;-79
2021/08/24 07:40:48;;;;;;;7.85;3.20;;;;;;;38.86;17.87;97274.06;5053004;28;20060;-78
2021/08/24 07:43:13;;;;;;;6.03;3.00;;;;;;;39.94;17.38;97275.16;5051639;28;20408;-78
2021/08/24 07:45:39;;;;;;;9.20;3.63;;;;;;;39.79;17.32;97272.44;5034715;28;20137;-78
2021/08/24 07:48:05;;;;;;;9.43;4.00;;;;;;;39.83;17.43;97272.69;5052504;28;20484;-78
2021/08/24 07:50:31;;;;;;;12.55;4.80;;;;;;;40.20;17.01;97273.06;5051269;28;20029;-78
2021/08/24 07:52:57;;;;;;;8.10;4.03;;;;;;;40.02;17.00;97266.13;5068267;28;20036;-78
2021/08/24 07:55:22;;;;;;;10.25;3.78;;;;;;;40.07;17.29;97268.91;5052557;28;20025;-78
2021/08/24 07:57:48;;;;;;;9.15;3.72;;;;;;;41.77;15.83;97265.97;5027395;28;20043;-78
2021/08/24 08:00:14;;;;;;;12.05;3.72;;;;;;;41.56;16.05;97252.13;5045734;28;20036;-79
2021/08/24 08:02:39;;;;;;;6.65;3.58;;;;;;;39.86;17.05;97256.16;5051089;28;20036;-79
2021/08/24 08:05:06;;;;;;;4.25;3.35;;;;;;;40.68;16.55;97262.03;5052524;28;20029;-79
2021/08/24 08:07:32;;;;;;;10.52;3.78;;;;;;;41.51;15.61;97257.81;5034723;28;20052;-79
2021/08/24 08:09:57;;;;;;;7.43;3.72;;;;;;;41.52;15.38;97255.84;5039687;28;20033;-78
2021/08/24 08:12:23;;;;;;;5.47;3.63;;;;;;;41.49;15.45;97253.63;5050435;28;20051;-78
2021/08/24 08:14:48;;;;;;;5.05;3.45;;;;;;;41.21;15.85;97246.09;5019909;28;20478;-78
2021/08/24 08:17:14;;;;;;;12.35;4.28;;;;;;;38.82;17.01;97234.66;5050792;28;20032;-77
2021/08/24 08:19:41;;;;;;;7.70;3.10;;;;;;;38.27;17.64;97252.22;5035329;28;20086;-77
2021/08/24 08:22:08;;;;;;;114.60;6.47;;;;;;;39.01;17.08;97252.50;5042745;28;20052;-78
2021/08/24 08:24:34;;;;;;;6.32;3.20;;;;;;;39.82;16.71;97241.03;5034161;28;20466;-78
2021/08/24 08:27:00;;;;;;;11.05;4.00;;;;;;;41.07;15.60;97238.34;5045716;28;20040;-79
2021/08/24 08:29:25;;;;;;;18.05;4.10;;;;;;;42.24;14.68;97237.72;5017914;28;20482;-80
2021/08/24 08:31:51;;;;;;;9.02;3.55;;;;;;;43.14;14.28;97240.13;5051902;28;20037;-78
2021/08/24 08:34:18;;;;;;;11.50;5.95;;;;;;;43.82;13.75;97247.78;5017743;28;20122;-78
2021/08/24 08:36:48;;;;;;;10.68;4.57;;;;;;;44.53;13.13;97241.31;5025951;28;20031;-78
2021/08/24 08:39:15;;;;;;;5.07;3.67;;;;;;;41.48;15.18;97243.53;5050836;28;20032;-79
2021/08/24 08:41:46;;;;;;;6.97;3.03;;;;;;;42.79;14.10;97241.63;5042448;28;20495;-78
2021/08/24 08:44:21;;;;;;;19.30;4.35;;;;;;;43.55;13.81;97232.53;5051600;28;20111;-78
2021/08/24 08:47:18;;;;;;;4.65;3.72;;;;;;;43.38;13.87;97237.16;5051886;28;20024;-78
2021/08/24 08:50:02;;;;;;;10.20;3.80;;;;;;;43.52;13.67;97237.97;5007556;28;20503;-78
2021/08/24 08:52:48;;;;;;;5.28;2.88;;;;;;;44.25;12.83;97229.31;5027120;28;20032;-77
2021/08/24 08:55:44;;;;;;;6.07;3.22;;;;;;;45.40;12.19;97226.59;5051787;28;20021;-78
2021/08/24 08:58:31;;;;;;;4.22;3.35;;;;;;;41.41;14.49;97218.59;5013353;28;20086;-79
2021/08/24 09:01:00;;;;;;;11.40;4.28;;;;;;;42.32;14.65;97225.78;5041917;28;20036;-78
2021/08/24 09:03:54;;;;;;;6.95;2.90;;;;;;;40.11;15.55;97213.13;5016967;28;20059;-78
2021/08/24 09:06:23;;;;;;;4.88;3.10;;;;;;;42.12;14.48;97217.63;5030395;28;20045;-79
2021/08/24 09:08:48;;;;;;;32.60;29.13;;;;;;;43.36;13.49;97222.50;5038669;28;20060;-79
2021/08/24 09:11:15;;;;;;;10.32;6.90;;;;;;;42.33;13.87;97212.56;5038015;28;20112;-79
2021/08/24 09:13:49;;;;;;;9.15;5.40;;;;;;;43.15;13.75;97216.44;5031374;28;20423;-78
2021/08/24 09:16:14;;;;;;;8.70;3.85;;;;;;;41.30;15.40;97219.84;5050148;28;20025;-78
2021/08/24 09:18:42;;;;;;;3.88;3.45;;;;;;;39.52;16.27;97213.16;5051301;28;20322;-78
2021/08/24 09:21:10;;;;;;;4.32;3.78;;;;;;;39.70;16.25;97217.28;5030344;28;20025;-78
2021/08/24 09:23:36;;;;;;;5.78;3.65;;;;;;;41.85;14.78;97221.13;5048552;28;20029;-78
2021/08/24 09:26:17;;;;;;;5.50;3.30;;;;;;;43.71;13.48;97213.31;5050905;28;20033;-78
2021/08/24 09:28:43;;;;;;;12.77;3.83;;;;;;;43.28;13.56;97200.69;5050089;28;20036;-78
2021/08/24 09:31:16;;;;;;;7.93;3.58;;;;;;;43.06;13.80;97207.06;5035682;28;20087;-78
2021/08/24 09:33:41;;;;;;;5.18;3.30;;;;;;;42.91;13.91;97210.13;5029308;28;20026;-78
2021/08/24 09:36:07;;;;;;;5.80;3.13;;;;;;;44.18;13.06;97207.16;5013760;28;20132;-78
2021/08/24 09:38:50;;;;;;;9.27;3.40;;;;;;;43.88;13.62;97207.88;5022803;28;20026;-78
2021/08/24 09:41:32;;;;;;;8.68;3.58;;;;;;;45.05;12.61;97198.16;5051071;28;20060;-78
2021/08/24 09:44:18;;;;;;;6.45;4.03;;;;;;;44.16;13.32;97186.91;5033001;28;20037;-78
2021/08/24 09:46:44;;;;;;;6.72;4.18;;;;;;;45.67;12.54;97195.25;5041300;28;20047;-78
2021/08/24 09:49:38;;;;;;;4.82;4.13;;;;;;;43.61;14.76;97203.09;5033449;28;20021;-78
2021/08/24 09:52:11;;;;;;;9.82;4.40;;;;;;;43.77;14.27;97195.16;5026762;28;20067;-78
2021/08/24 09:54:48;;;;;;;4.13;3.65;;;;;;;44.05;14.28;97198.75;5031646;28;20033;-78
2021/08/24 09:57:24;;;;;;;4.93;3.65;;;;;;;44.75;14.35;97193.31;5045721;28;20025;-78
2021/08/24 10:00:21;;;;;;;7.90;4.63;;;;;;;44.83;14.64;97203.00;5041327;28;20395;-78
2021/08/24 10:02:53;;;;;;;5.97;4.05;;;;;;;43.94;15.39;97188.84;5050598;28;20063;-78
2021/08/24 10:05:21;;;;;;;4.82;4.32;;;;;;;44.57;14.61;97195.22;5036706;28;20565;-78
2021/08/24 10:07:51;;;;;;;6.32;4.15;;;;;;;44.54;14.82;97192.19;5049553;28;20495;-78
2021/08/24 10:10:30;;;;;;;7.45;4.00;;;;;;;44.57;14.62;97188.75;5025231;28;20459;-78
2021/08/24 10:12:58;;;;;;;5.82;3.92;;;;;;;44.22;14.90;97187.63;5033600;28;20033;-79
2021/08/24 10:15:30;;;;;;;6.35;3.83;;;;;;;44.38;14.78;97190.88;5049742;28;20091;-77
2021/08/24 10:18:02;;;;;;;12.63;4.55;;;;;;;44.45;15.06;97180.00;5050972;28;20060;-78
2021/08/24 10:20:33;;;;;;;10.38;3.92;;;;;;;44.21;14.83;97172.66;5050999;28;20047;-78
2021/08/24 10:23:01;;;;;;;6.25;3.88;;;;;;;43.57;14.81;97185.13;5025387;28;20025;-78
2021/08/24 10:25:33;;;;;;;7.25;4.22;;;;;;;42.94;15.55;97187.81;5037281;28;20040;-78
2021/08/24 10:28:22;;;;;;;4.40;3.85;;;;;;;43.15;15.33;97177.84;5049146;28;20021;-79
2021/08/24 10:30:58;;;;;;;9.70;5.40;;;;;;;43.60;15.36;97178.88;5039774;28;20029;-78
2021/08/24 10:33:26;;;;;;;13.85;5.10;;;;;;;44.31;14.77;97177.22;5029625;28;20027;-78
2021/08/24 10:35:56;;;;;;;11.43;4.55;;;;;;;43.60;15.00;97161.94;5031855;28;20035;-78
2021/08/24 10:38:42;;;;;;;6.50;4.00;;;;;;;42.46;15.83;97169.53;5035749;28;20059;-78
2021/08/24 10:41:29;;;;;;;13.45;4.60;;;;;;;43.74;15.33;97170.38;5046126;28;20098;-78
2021/08/24 10:43:57;;;;;;;13.27;4.93;;;;;;;42.06;16.45;97157.81;5028432;28;20061;-78
2021/08/24 10:46:23;;;;;;;4.72;3.90;;;;;;;41.88;16.95;97157.84;5047884;28;20087;-78
2021/08/24 10:48:49;;;;;;;7.22;4.05;;;;;;;42.45;16.43;97162.25;5052959;28;20032;-79
2021/08/24 10:51:41;;;;;;;4.90;4.28;;;;;;;44.39;14.71;97161.53;5046559;28;20478;-79
2021/08/24 10:54:27;;;;;;;6.63;4.55;;;;;;;44.85;14.87;97163.97;5038140;28;20025;-77
2021/08/24 10:57:01;;;;;;;16.58;4.40;;;;;;;45.46;13.85;97175.25;5053868;28;20021;-77
2021/08/24 10:59:36;;;;;;;4.75;4.00;;;;;;;45.04;14.59;97165.41;5046119;28;20029;-77
2021/08/24 11:02:15;;;;;;;5.03;3.90;;;;;;;44.97;14.40;97165.06;5027995;28;20630;-77
2021/08/24 11:05:03;;;;;;;6.25;4.10;;;;;;;44.39;14.85;97165.19;5044336;28;20051;-76
2021/08/24 11:08:05;;;;;;;12.05;4.78;;;;;;;44.21;15.25;97161.38;5053744;28;20056;-78
2021/08/24 11:10:43;;;;;;;7.78;3.65;;;;;;;41.15;16.96;97154.59;5049337;28;20026;-78
2021/08/24 11:13:18;;;;;;;9.07;4.43;;;;;;;41.77;16.69;97154.34;5046024;28;20404;-78
2021/08/24 11:16:25;;;;;;;5.95;4.07;;;;;;;41.43;17.23;97150.91;5043830;28;20040;-78
2021/08/24 11:18:57;;;;;;;9.18;4.05;;;;;;;42.62;16.55;97151.25;5034006;28;20120;-78
2021/08/24 11:21:34;;;;;;;15.73;4.38;;;;;;;43.20;15.80;97149.56;5052266;28;20032;-78
2021/08/24 11:24:09;;;;;;;8.57;4.78;;;;;;;43.06;15.86;97147.91;5035876;28;20079;-78
2021/08/24 11:27:13;;;;;;;54.63;7.13;;;;;;;43.79;15.08;97153.38;5053287;28;20029;-79
2021/08/24 11:29:48;;;;;;;21.50;4.90;;;;;;;43.44;14.96;97146.53;5012375;28;20044;-79
2021/08/24 11:32:29;;;;;;;12.68;4.57;;;;;;;43.92;14.71;97134.75;5038394;28;20467;-79
2021/08/24 11:34:58;;;;;;;7.85;4.22;;;;;;;45.03;13.72;97137.50;5033479;28;20056;-79
2021/08/24 11:37:32;;;;;;;20.33;6.15;;;;;;;45.06;14.11;97137.69;5052850;28;20062;-79
2021/08/24 11:40:12;;;;;;;14.85;4.05;;;;;;;45.02;14.52;97147.13;5033806;28;20025;-78
2021/08/24 11:42:44;;;;;;;9.00;5.15;;;;;;;45.09;14.76;97145.50;5039564;28;20013;-79
2021/08/24 11:45:25;;;;;;;12.38;4.90;;;;;;;45.26;14.58;97136.22;5034839;28;20492;-79
2021/08/24 11:47:59;;;;;;;9.57;5.82;;;;;;;44.45;14.74;97137.66;5042723;28;20090;-78